sensor_id;sensor_type;location;lat;lon;timestamp;P1;durP1;ratioP1;P2;durP2;ratioP2
14613;SDS011;7393;51.446;6.800;2023-12-14T00:00:39;21.57;;;13.33;;
14613;SDS011;7393;51.446;6.800;2023-12-14T00:03:07;17.37;;;12.10;;
14613;SDS011;7393;51.446;6.800;2023-12-14T00:05:33;16.53;;;11.03;;
14613;SDS011;7393;51.446;6.800;2023-12-14T00:08:01;12.87;;;9.43;;
14613;SDS011;7393;51.446;6.800;2023-12-14T00:10:27;13.00;;;8.83;;
14613;SDS011;7393;51.446;6.800;2023-12-14T00:12:54;13.57;;;9.03;;
14613;SDS011;7393;51.446;6.800;2023-12-14T00:15:21;12.73;;;8.93;;
14613;SDS011;7393;51.446;6.800;2023-12-14T00:17:48;13.47;;;9.40;;
14613;SDS011;7393;51.446;6.800;2023-12-14T00:20:16;12.10;;;8.50;;
14613;SDS011;7393;51.446;6.800;2023-12-14T00:22:43;15.27;;;9.60;;
14613;SDS011;7393;51.446;6.800;2023-12-14T00:25:10;13.10;;;8.90;;
14613;SDS011;7393;51.446;6.800;2023-12-14T00:27:36;14.73;;;9.07;;
14613;SDS011;7393;51.446;6.800;2023-12-14T00:30:03;13.13;;;8.40;;
14613;SDS011;7393;51.446;6.800;2023-12-14T00:32:31;12.73;;;8.47;;
14613;SDS011;7393;51.446;6.800;2023-12-14T00:34:58;9.53;;;7.77;;
14613;SDS011;7393;51.446;6.800;2023-12-14T00:37:26;11.30;;;7.90;;
14613;SDS011;7393;51.446;6.800;2023-12-14T00:39:53;10.03;;;7.70;;
14613;SDS011;7393;51.446;6.800;2023-12-14T00:42:20;9.37;;;7.47;;
14613;SDS011;7393;51.446;6.800;2023-12-14T00:44:47;10.17;;;7.27;;
14613;SDS011;7393;51.446;6.800;2023-12-14T00:47:13;9.37;;;7.57;;
14613;SDS011;7393;51.446;6.800;2023-12-14T00:49:40;12.63;;;7.83;;
14613;SDS011;7393;51.446;6.800;2023-12-14T00:52:07;10.60;;;7.50;;
14613;SDS011;7393;51.446;6.800;2023-12-14T00:54:35;8.13;;;7.10;;
14613;SDS011;7393;51.446;6.800;2023-12-14T00:57:02;9.57;;;7.33;;
14613;SDS011;7393;51.446;6.800;2023-12-14T00:59:29;8.77;;;7.20;;
14613;SDS011;7393;51.446;6.800;2023-12-14T01:01:55;10.07;;;7.20;;
14613;SDS011;7393;51.446;6.800;2023-12-14T01:04:23;9.93;;;7.73;;
14613;SDS011;7393;51.446;6.800;2023-12-14T01:06:49;8.77;;;7.30;;
14613;SDS011;7393;51.446;6.800;2023-12-14T01:09:16;9.93;;;7.27;;
14613;SDS011;7393;51.446;6.800;2023-12-14T01:11:44;8.97;;;6.90;;
14613;SDS011;7393;51.446;6.800;2023-12-14T01:14:11;7.93;;;6.83;;
14613;SDS011;7393;51.446;6.800;2023-12-14T01:16:38;7.13;;;6.40;;
14613;SDS011;7393;51.446;6.800;2023-12-14T01:19:05;6.73;;;6.03;;
14613;SDS011;7393;51.446;6.800;2023-12-14T01:21:32;6.63;;;5.30;;
14613;SDS011;7393;51.446;6.800;2023-12-14T01:23:59;6.60;;;5.87;;
14613;SDS011;7393;51.446;6.800;2023-12-14T01:26:26;5.90;;;5.30;;
14613;SDS011;7393;51.446;6.800;2023-12-14T01:28:55;6.60;;;5.90;;
14613;SDS011;7393;51.446;6.800;2023-12-14T01:31:21;6.70;;;6.00;;
14613;SDS011;7393;51.446;6.800;2023-12-14T01:33:49;7.07;;;5.90;;
14613;SDS011;7393;51.446;6.800;2023-12-14T01:36:19;8.70;;;5.93;;
14613;SDS011;7393;51.446;6.800;2023-12-14T01:38:47;7.50;;;6.47;;
14613;SDS011;7393;51.446;6.800;2023-12-14T01:41:14;7.20;;;6.50;;
14613;SDS011;7393;51.446;6.800;2023-12-14T01:43:40;10.20;;;7.97;;
14613;SDS011;7393;51.446;6.800;2023-12-14T01:46:09;13.10;;;9.73;;
14613;SDS011;7393;51.446;6.800;2023-12-14T01:48:35;12.63;;;9.73;;
14613;SDS011;7393;51.446;6.800;2023-12-14T01:51:02;12.17;;;9.97;;
14613;SDS011;7393;51.446;6.800;2023-12-14T01:53:29;13.40;;;10.43;;
14613;SDS011;7393;51.446;6.800;2023-12-14T01:55:56;13.50;;;10.20;;
14613;SDS011;7393;51.446;6.800;2023-12-14T01:58:23;13.57;;;10.27;;
14613;SDS011;7393;51.446;6.800;2023-12-14T02:00:51;15.23;;;11.87;;
14613;SDS011;7393;51.446;6.800;2023-12-14T02:03:25;15.07;;;11.90;;
14613;SDS011;7393;51.446;6.800;2023-12-14T02:05:52;15.37;;;11.73;;
14613;SDS011;7393;51.446;6.800;2023-12-14T02:08:18;14.63;;;11.80;;
14613;SDS011;7393;51.446;6.800;2023-12-14T02:10:45;13.77;;;11.30;;
14613;SDS011;7393;51.446;6.800;2023-12-14T02:13:13;16.17;;;12.27;;
14613;SDS011;7393;51.446;6.800;2023-12-14T02:15:40;17.60;;;12.60;;
14613;SDS011;7393;51.446;6.800;2023-12-14T02:18:06;18.53;;;13.03;;
14613;SDS011;7393;51.446;6.800;2023-12-14T02:20:34;16.33;;;13.23;;
14613;SDS011;7393;51.446;6.800;2023-12-14T02:23:02;17.40;;;13.13;;
14613;SDS011;7393;51.446;6.800;2023-12-14T02:25:29;19.50;;;14.13;;
14613;SDS011;7393;51.446;6.800;2023-12-14T02:27:56;16.93;;;13.27;;
14613;SDS011;7393;51.446;6.800;2023-12-14T02:30:22;20.83;;;14.97;;
14613;SDS011;7393;51.446;6.800;2023-12-14T02:32:49;20.87;;;15.47;;
14613;SDS011;7393;51.446;6.800;2023-12-14T02:35:16;23.23;;;16.33;;
14613;SDS011;7393;51.446;6.800;2023-12-14T02:37:44;22.77;;;16.07;;
14613;SDS011;7393;51.446;6.800;2023-12-14T02:40:12;20.57;;;15.53;;
14613;SDS011;7393;51.446;6.800;2023-12-14T02:42:39;20.13;;;13.87;;
14613;SDS011;7393;51.446;6.800;2023-12-14T02:45:07;16.43;;;12.67;;
14613;SDS011;7393;51.446;6.800;2023-12-14T02:47:34;16.23;;;12.23;;
14613;SDS011;7393;51.446;6.800;2023-12-14T02:50:01;15.97;;;10.93;;
14613;SDS011;7393;51.446;6.800;2023-12-14T02:52:27;17.10;;;11.37;;
14613;SDS011;7393;51.446;6.800;2023-12-14T02:54:54;15.97;;;10.83;;
14613;SDS011;7393;51.446;6.800;2023-12-14T02:57:22;16.53;;;11.07;;
14613;SDS011;7393;51.446;6.800;2023-12-14T02:59:49;14.60;;;11.13;;
14613;SDS011;7393;51.446;6.800;2023-12-14T03:02:16;16.53;;;11.77;;
14613;SDS011;7393;51.446;6.800;2023-12-14T03:04:43;20.13;;;13.37;;
14613;SDS011;7393;51.446;6.800;2023-12-14T03:07:09;20.87;;;12.27;;
14613;SDS011;7393;51.446;6.800;2023-12-14T03:09:38;19.20;;;12.97;;
14613;SDS011;7393;51.446;6.800;2023-12-14T03:12:06;18.47;;;13.07;;
14613;SDS011;7393;51.446;6.800;2023-12-14T03:14:34;17.77;;;12.03;;
14613;SDS011;7393;51.446;6.800;2023-12-14T03:17:01;18.33;;;12.27;;
14613;SDS011;7393;51.446;6.800;2023-12-14T03:19:28;16.77;;;11.23;;
14613;SDS011;7393;51.446;6.800;2023-12-14T03:21:55;17.27;;;12.23;;
14613;SDS011;7393;51.446;6.800;2023-12-14T03:24:21;19.30;;;12.47;;
14613;SDS011;7393;51.446;6.800;2023-12-14T03:26:48;18.13;;;12.43;;
14613;SDS011;7393;51.446;6.800;2023-12-14T03:29:16;19.20;;;12.47;;
14613;SDS011;7393;51.446;6.800;2023-12-14T03:31:44;20.03;;;12.60;;
14613;SDS011;7393;51.446;6.800;2023-12-14T03:34:11;20.43;;;12.70;;
14613;SDS011;7393;51.446;6.800;2023-12-14T03:36:38;18.93;;;12.70;;
14613;SDS011;7393;51.446;6.800;2023-12-14T03:39:05;19.90;;;12.97;;
14613;SDS011;7393;51.446;6.800;2023-12-14T03:41:32;19.33;;;13.07;;
14613;SDS011;7393;51.446;6.800;2023-12-14T03:43:58;20.77;;;13.53;;
14613;SDS011;7393;51.446;6.800;2023-12-14T03:46:25;22.30;;;14.00;;
14613;SDS011;7393;51.446;6.800;2023-12-14T03:48:53;21.20;;;13.80;;
14613;SDS011;7393;51.446;6.800;2023-12-14T03:51:20;20.73;;;14.93;;
14613;SDS011;7393;51.446;6.800;2023-12-14T03:53:47;24.43;;;16.10;;
14613;SDS011;7393;51.446;6.800;2023-12-14T03:56:14;23.60;;;15.10;;
14613;SDS011;7393;51.446;6.800;2023-12-14T03:58:41;24.70;;;16.80;;
14613;SDS011;7393;51.446;6.800;2023-12-14T04:01:07;25.73;;;17.63;;
14613;SDS011;7393;51.446;6.800;2023-12-14T04:03:40;27.13;;;17.77;;
14613;SDS011;7393;51.446;6.800;2023-12-14T04:06:09;23.63;;;16.50;;
14613;SDS011;7393;51.446;6.800;2023-12-14T04:08:36;25.50;;;15.93;;
14613;SDS011;7393;51.446;6.800;2023-12-14T04:11:04;23.20;;;16.20;;
14613;SDS011;7393;51.446;6.800;2023-12-14T04:13:31;25.80;;;16.87;;
14613;SDS011;7393;51.446;6.800;2023-12-14T04:15:57;26.77;;;17.53;;
14613;SDS011;7393;51.446;6.800;2023-12-14T04:18:24;22.27;;;16.17;;
14613;SDS011;7393;51.446;6.800;2023-12-14T04:20:51;24.53;;;16.70;;
14613;SDS011;7393;51.446;6.800;2023-12-14T04:23:19;23.17;;;15.70;;
14613;SDS011;7393;51.446;6.800;2023-12-14T04:25:46;27.93;;;16.83;;
14613;SDS011;7393;51.446;6.800;2023-12-14T04:28:12;26.40;;;16.70;;
14613;SDS011;7393;51.446;6.800;2023-12-14T04:30:39;28.17;;;17.97;;
14613;SDS011;7393;51.446;6.800;2023-12-14T04:33:06;28.33;;;18.27;;
14613;SDS011;7393;51.446;6.800;2023-12-14T04:35:33;24.53;;;16.67;;
14613;SDS011;7393;51.446;6.800;2023-12-14T04:38:01;29.07;;;17.77;;
14613;SDS011;7393;51.446;6.800;2023-12-14T04:40:29;25.60;;;17.30;;
14613;SDS011;7393;51.446;6.800;2023-12-14T04:42:56;27.00;;;18.27;;
14613;SDS011;7393;51.446;6.800;2023-12-14T04:45:23;26.70;;;17.47;;
14613;SDS011;7393;51.446;6.800;2023-12-14T04:47:50;24.90;;;16.47;;
14613;SDS011;7393;51.446;6.800;2023-12-14T04:50:16;24.43;;;15.93;;
14613;SDS011;7393;51.446;6.800;2023-12-14T04:52:43;23.40;;;15.00;;
14613;SDS011;7393;51.446;6.800;2023-12-14T04:55:10;22.63;;;15.47;;
14613;SDS011;7393;51.446;6.800;2023-12-14T04:57:38;25.47;;;16.57;;
14613;SDS011;7393;51.446;6.800;2023-12-14T05:00:05;24.67;;;16.13;;
14613;SDS011;7393;51.446;6.800;2023-12-14T05:02:33;23.73;;;15.10;;
14613;SDS011;7393;51.446;6.800;2023-12-14T05:04:59;22.07;;;15.50;;
14613;SDS011;7393;51.446;6.800;2023-12-14T05:07:27;23.90;;;13.97;;
14613;SDS011;7393;51.446;6.800;2023-12-14T05:09:55;21.53;;;14.67;;
14613;SDS011;7393;51.446;6.800;2023-12-14T05:12:22;20.50;;;13.97;;
14613;SDS011;7393;51.446;6.800;2023-12-14T05:14:51;24.30;;;15.30;;
14613;SDS011;7393;51.446;6.800;2023-12-14T05:17:18;20.53;;;13.93;;
14613;SDS011;7393;51.446;6.800;2023-12-14T05:19:45;23.97;;;14.80;;
14613;SDS011;7393;51.446;6.800;2023-12-14T05:22:12;21.07;;;13.47;;
14613;SDS011;7393;51.446;6.800;2023-12-14T05:24:38;19.07;;;13.67;;
14613;SDS011;7393;51.446;6.800;2023-12-14T05:27:05;23.37;;;14.83;;
14613;SDS011;7393;51.446;6.800;2023-12-14T05:29:32;21.23;;;14.07;;
14613;SDS011;7393;51.446;6.800;2023-12-14T05:32:01;24.80;;;15.23;;
14613;SDS011;7393;51.446;6.800;2023-12-14T05:34:27;25.37;;;15.70;;
14613;SDS011;7393;51.446;6.800;2023-12-14T05:36:54;20.80;;;14.23;;
14613;SDS011;7393;51.446;6.800;2023-12-14T05:39:21;21.90;;;14.60;;
14613;SDS011;7393;51.446;6.800;2023-12-14T05:41:48;21.47;;;15.23;;
14613;SDS011;7393;51.446;6.800;2023-12-14T05:44:15;22.67;;;15.30;;
14613;SDS011;7393;51.446;6.800;2023-12-14T05:46:41;23.23;;;15.93;;
14613;SDS011;7393;51.446;6.800;2023-12-14T05:49:10;24.50;;;16.07;;
14613;SDS011;7393;51.446;6.800;2023-12-14T05:51:36;24.57;;;16.97;;
14613;SDS011;7393;51.446;6.800;2023-12-14T05:54:04;24.80;;;15.97;;
14613;SDS011;7393;51.446;6.800;2023-12-14T05:56:31;25.50;;;16.87;;
14613;SDS011;7393;51.446;6.800;2023-12-14T05:58:58;26.93;;;17.83;;
14613;SDS011;7393;51.446;6.800;2023-12-14T06:01:25;23.43;;;15.33;;
14613;SDS011;7393;51.446;6.800;2023-12-14T06:03:52;25.67;;;15.53;;
14613;SDS011;7393;51.446;6.800;2023-12-14T06:06:20;25.60;;;16.23;;
14613;SDS011;7393;51.446;6.800;2023-12-14T06:08:47;25.67;;;15.90;;
14613;SDS011;7393;51.446;6.800;2023-12-14T06:11:14;25.57;;;15.93;;
14613;SDS011;7393;51.446;6.800;2023-12-14T06:13:41;25.07;;;16.00;;
14613;SDS011;7393;51.446;6.800;2023-12-14T06:16:08;26.53;;;16.60;;
14613;SDS011;7393;51.446;6.800;2023-12-14T06:18:37;23.97;;;15.77;;
14613;SDS011;7393;51.446;6.800;2023-12-14T06:21:06;30.40;;;17.33;;
14613;SDS011;7393;51.446;6.800;2023-12-14T06:23:35;29.67;;;16.93;;
14613;SDS011;7393;51.446;6.800;2023-12-14T06:26:02;30.33;;;18.53;;
14613;SDS011;7393;51.446;6.800;2023-12-14T06:28:29;28.03;;;18.20;;
14613;SDS011;7393;51.446;6.800;2023-12-14T06:30:56;31.50;;;19.03;;
14613;SDS011;7393;51.446;6.800;2023-12-14T06:33:23;28.03;;;19.30;;
14613;SDS011;7393;51.446;6.800;2023-12-14T06:35:50;29.80;;;19.10;;
14613;SDS011;7393;51.446;6.800;2023-12-14T06:38:16;30.90;;;18.53;;
14613;SDS011;7393;51.446;6.800;2023-12-14T06:40:44;36.00;;;21.63;;
14613;SDS011;7393;51.446;6.800;2023-12-14T06:43:11;31.90;;;21.10;;
14613;SDS011;7393;51.446;6.800;2023-12-14T06:45:38;33.70;;;20.33;;
14613;SDS011;7393;51.446;6.800;2023-12-14T06:48:05;31.60;;;21.07;;
14613;SDS011;7393;51.446;6.800;2023-12-14T06:50:32;30.57;;;20.00;;
14613;SDS011;7393;51.446;6.800;2023-12-14T06:52:58;31.57;;;20.07;;
14613;SDS011;7393;51.446;6.800;2023-12-14T06:55:25;31.80;;;20.03;;
14613;SDS011;7393;51.446;6.800;2023-12-14T06:57:53;29.77;;;19.03;;
14613;SDS011;7393;51.446;6.800;2023-12-14T07:00:20;30.27;;;19.17;;
14613;SDS011;7393;51.446;6.800;2023-12-14T07:02:47;28.90;;;18.80;;
14613;SDS011;7393;51.446;6.800;2023-12-14T07:05:14;27.93;;;19.00;;
14613;SDS011;7393;51.446;6.800;2023-12-14T07:07:41;29.97;;;19.60;;
14613;SDS011;7393;51.446;6.800;2023-12-14T07:10:08;30.70;;;19.13;;
14613;SDS011;7393;51.446;6.800;2023-12-14T07:12:35;31.23;;;20.00;;
14613;SDS011;7393;51.446;6.800;2023-12-14T07:15:03;25.57;;;17.50;;
14613;SDS011;7393;51.446;6.800;2023-12-14T07:17:31;26.97;;;17.70;;
14613;SDS011;7393;51.446;6.800;2023-12-14T07:19:57;32.30;;;20.40;;
14613;SDS011;7393;51.446;6.800;2023-12-14T07:22:24;36.07;;;23.17;;
14613;SDS011;7393;51.446;6.800;2023-12-14T07:24:51;37.70;;;23.43;;
14613;SDS011;7393;51.446;6.800;2023-12-14T07:27:18;39.60;;;24.67;;
14613;SDS011;7393;51.446;6.800;2023-12-14T07:29:44;41.63;;;24.67;;
14613;SDS011;7393;51.446;6.800;2023-12-14T07:32:12;39.00;;;24.53;;
14613;SDS011;7393;51.446;6.800;2023-12-14T07:34:39;43.43;;;25.93;;
14613;SDS011;7393;51.446;6.800;2023-12-14T07:37:06;41.50;;;24.97;;
14613;SDS011;7393;51.446;6.800;2023-12-14T07:39:33;39.97;;;24.47;;
14613;SDS011;7393;51.446;6.800;2023-12-14T07:41:59;40.23;;;24.77;;
14613;SDS011;7393;51.446;6.800;2023-12-14T07:44:26;38.70;;;25.10;;
14613;SDS011;7393;51.446;6.800;2023-12-14T07:46:55;41.20;;;25.03;;
14613;SDS011;7393;51.446;6.800;2023-12-14T07:49:23;40.07;;;24.97;;
14613;SDS011;7393;51.446;6.800;2023-12-14T07:51:49;38.53;;;24.70;;
14613;SDS011;7393;51.446;6.800;2023-12-14T07:54:16;41.03;;;24.30;;
14613;SDS011;7393;51.446;6.800;2023-12-14T07:56:43;39.03;;;24.33;;
14613;SDS011;7393;51.446;6.800;2023-12-14T07:59:10;40.00;;;24.40;;
14613;SDS011;7393;51.446;6.800;2023-12-14T08:01:37;37.27;;;23.43;;
14613;SDS011;7393;51.446;6.800;2023-12-14T08:04:04;43.47;;;24.90;;
14613;SDS011;7393;51.446;6.800;2023-12-14T08:06:32;40.70;;;25.20;;
14613;SDS011;7393;51.446;6.800;2023-12-14T08:08:59;41.97;;;25.23;;
14613;SDS011;7393;51.446;6.800;2023-12-14T08:11:26;39.50;;;24.57;;
14613;SDS011;7393;51.446;6.800;2023-12-14T08:13:53;38.37;;;23.73;;
14613;SDS011;7393;51.446;6.800;2023-12-14T08:16:20;35.43;;;22.27;;
14613;SDS011;7393;51.446;6.800;2023-12-14T08:18:47;34.63;;;22.50;;
14613;SDS011;7393;51.446;6.800;2023-12-14T08:21:13;32.43;;;21.07;;
14613;SDS011;7393;51.446;6.800;2023-12-14T08:23:42;34.23;;;21.93;;
14613;SDS011;7393;51.446;6.800;2023-12-14T08:26:09;33.80;;;21.03;;
14613;SDS011;7393;51.446;6.800;2023-12-14T08:28:37;34.17;;;21.80;;
14613;SDS011;7393;51.446;6.800;2023-12-14T08:31:04;31.53;;;21.23;;
14613;SDS011;7393;51.446;6.800;2023-12-14T08:33:31;31.43;;;20.90;;
14613;SDS011;7393;51.446;6.800;2023-12-14T08:35:58;34.50;;;21.80;;
14613;SDS011;7393;51.446;6.800;2023-12-14T08:38:25;36.80;;;21.40;;
14613;SDS011;7393;51.446;6.800;2023-12-14T08:40:53;30.07;;;20.87;;
14613;SDS011;7393;51.446;6.800;2023-12-14T08:43:20;38.40;;;22.60;;
14613;SDS011;7393;51.446;6.800;2023-12-14T08:45:46;30.07;;;20.57;;
14613;SDS011;7393;51.446;6.800;2023-12-14T08:48:13;32.93;;;21.40;;
14613;SDS011;7393;51.446;6.800;2023-12-14T08:50:40;34.43;;;21.67;;
14613;SDS011;7393;51.446;6.800;2023-12-14T08:53:07;31.17;;;21.07;;
14613;SDS011;7393;51.446;6.800;2023-12-14T08:55:34;28.87;;;19.80;;
14613;SDS011;7393;51.446;6.800;2023-12-14T08:58:02;30.10;;;20.37;;
14613;SDS011;7393;51.446;6.800;2023-12-14T09:00:29;32.10;;;21.07;;
14613;SDS011;7393;51.446;6.800;2023-12-14T09:02:56;31.17;;;20.50;;
14613;SDS011;7393;51.446;6.800;2023-12-14T09:05:23;31.63;;;20.63;;
14613;SDS011;7393;51.446;6.800;2023-12-14T09:07:51;31.13;;;20.70;;
14613;SDS011;7393;51.446;6.800;2023-12-14T09:10:21;29.40;;;20.47;;
14613;SDS011;7393;51.446;6.800;2023-12-14T09:12:48;30.47;;;20.27;;
14613;SDS011;7393;51.446;6.800;2023-12-14T09:15:16;28.27;;;18.70;;
14613;SDS011;7393;51.446;6.800;2023-12-14T09:17:43;31.30;;;20.60;;
14613;SDS011;7393;51.446;6.800;2023-12-14T09:20:09;30.27;;;19.67;;
14613;SDS011;7393;51.446;6.800;2023-12-14T09:22:37;31.97;;;20.67;;
14613;SDS011;7393;51.446;6.800;2023-12-14T09:25:04;32.73;;;20.83;;
14613;SDS011;7393;51.446;6.800;2023-12-14T09:27:34;28.57;;;19.67;;
14613;SDS011;7393;51.446;6.800;2023-12-14T09:30:01;30.50;;;19.43;;
14613;SDS011;7393;51.446;6.800;2023-12-14T09:32:29;30.73;;;20.20;;
14613;SDS011;7393;51.446;6.800;2023-12-14T09:34:56;29.23;;;19.97;;
14613;SDS011;7393;51.446;6.800;2023-12-14T09:37:22;32.27;;;20.93;;
14613;SDS011;7393;51.446;6.800;2023-12-14T09:39:49;29.47;;;19.77;;
14613;SDS011;7393;51.446;6.800;2023-12-14T09:42:17;27.93;;;18.53;;
14613;SDS011;7393;51.446;6.800;2023-12-14T09:44:45;26.73;;;18.87;;
14613;SDS011;7393;51.446;6.800;2023-12-14T09:47:12;25.83;;;16.67;;
14613;SDS011;7393;51.446;6.800;2023-12-14T09:49:41;21.67;;;16.30;;
14613;SDS011;7393;51.446;6.800;2023-12-14T09:52:09;20.40;;;15.00;;
14613;SDS011;7393;51.446;6.800;2023-12-14T09:54:36;23.13;;;15.73;;
14613;SDS011;7393;51.446;6.800;2023-12-14T09:57:03;20.77;;;15.40;;
14613;SDS011;7393;51.446;6.800;2023-12-14T09:59:30;19.13;;;14.77;;
14613;SDS011;7393;51.446;6.800;2023-12-14T10:02:08;22.17;;;16.07;;
14613;SDS011;7393;51.446;6.800;2023-12-14T10:04:36;18.67;;;14.97;;
14613;SDS011;7393;51.446;6.800;2023-12-14T10:07:04;21.30;;;15.63;;
14613;SDS011;7393;51.446;6.800;2023-12-14T10:09:32;18.83;;;14.60;;
14613;SDS011;7393;51.446;6.800;2023-12-14T10:12:01;19.10;;;15.37;;
14613;SDS011;7393;51.446;6.800;2023-12-14T10:14:30;21.70;;;15.37;;
14613;SDS011;7393;51.446;6.800;2023-12-14T10:16:58;22.87;;;15.67;;
14613;SDS011;7393;51.446;6.800;2023-12-14T10:19:25;19.77;;;15.00;;
14613;SDS011;7393;51.446;6.800;2023-12-14T10:21:52;21.63;;;14.70;;
14613;SDS011;7393;51.446;6.800;2023-12-14T10:24:20;23.37;;;15.20;;
14613;SDS011;7393;51.446;6.800;2023-12-14T10:26:47;24.67;;;15.87;;
14613;SDS011;7393;51.446;6.800;2023-12-14T10:29:14;20.27;;;14.77;;
14613;SDS011;7393;51.446;6.800;2023-12-14T10:31:41;22.47;;;15.60;;
14613;SDS011;7393;51.446;6.800;2023-12-14T10:34:09;20.07;;;14.77;;
14613;SDS011;7393;51.446;6.800;2023-12-14T10:36:37;21.67;;;15.27;;
14613;SDS011;7393;51.446;6.800;2023-12-14T10:39:04;20.03;;;14.33;;
14613;SDS011;7393;51.446;6.800;2023-12-14T10:41:34;19.93;;;15.03;;
14613;SDS011;7393;51.446;6.800;2023-12-14T10:44:03;20.40;;;15.33;;
14613;SDS011;7393;51.446;6.800;2023-12-14T10:46:31;20.77;;;16.10;;
14613;SDS011;7393;51.446;6.800;2023-12-14T10:48:59;21.03;;;15.13;;
14613;SDS011;7393;51.446;6.800;2023-12-14T10:51:27;19.07;;;14.20;;
14613;SDS011;7393;51.446;6.800;2023-12-14T10:53:55;18.40;;;14.50;;
14613;SDS011;7393;51.446;6.800;2023-12-14T10:56:22;18.90;;;13.53;;
14613;SDS011;7393;51.446;6.800;2023-12-14T10:58:52;18.60;;;12.43;;
14613;SDS011;7393;51.446;6.800;2023-12-14T11:01:20;20.20;;;12.67;;
14613;SDS011;7393;51.446;6.800;2023-12-14T11:03:49;15.60;;;11.07;;
14613;SDS011;7393;51.446;6.800;2023-12-14T11:06:28;13.70;;;10.90;;
14613;SDS011;7393;51.446;6.800;2023-12-14T11:08:56;16.87;;;10.93;;
14613;SDS011;7393;51.446;6.800;2023-12-14T11:11:27;15.37;;;10.37;;
14613;SDS011;7393;51.446;6.800;2023-12-14T11:13:56;15.17;;;10.43;;
14613;SDS011;7393;51.446;6.800;2023-12-14T11:16:23;14.00;;;10.57;;
14613;SDS011;7393;51.446;6.800;2023-12-14T11:22:10;16.50;;;11.50;;
14613;SDS011;7393;51.446;6.800;2023-12-14T11:24:50;14.07;;;11.27;;
14613;SDS011;7393;51.446;6.800;2023-12-14T11:27:19;15.77;;;11.90;;
14613;SDS011;7393;51.446;6.800;2023-12-14T11:29:52;18.13;;;11.93;;
14613;SDS011;7393;51.446;6.800;2023-12-14T11:32:19;17.33;;;11.73;;
14613;SDS011;7393;51.446;6.800;2023-12-14T11:34:46;17.77;;;12.93;;
14613;SDS011;7393;51.446;6.800;2023-12-14T11:37:13;16.27;;;11.00;;
14613;SDS011;7393;51.446;6.800;2023-12-14T11:39:40;14.07;;;10.40;;
14613;SDS011;7393;51.446;6.800;2023-12-14T11:42:08;16.63;;;11.17;;
14613;SDS011;7393;51.446;6.800;2023-12-14T11:44:35;13.93;;;10.80;;
14613;SDS011;7393;51.446;6.800;2023-12-14T11:47:04;14.63;;;11.13;;
14613;SDS011;7393;51.446;6.800;2023-12-14T11:49:31;19.23;;;10.37;;
14613;SDS011;7393;51.446;6.800;2023-12-14T11:52:01;14.67;;;10.37;;
14613;SDS011;7393;51.446;6.800;2023-12-14T11:54:29;15.00;;;9.90;;
14613;SDS011;7393;51.446;6.800;2023-12-14T11:56:56;13.50;;;9.93;;
14613;SDS011;7393;51.446;6.800;2023-12-14T11:59:23;11.97;;;9.47;;
14613;SDS011;7393;51.446;6.800;2023-12-14T12:01:56;15.00;;;8.87;;
14613;SDS011;7393;51.446;6.800;2023-12-14T12:04:25;13.07;;;8.77;;
14613;SDS011;7393;51.446;6.800;2023-12-14T12:07:00;11.90;;;8.77;;
14613;SDS011;7393;51.446;6.800;2023-12-14T12:09:34;12.37;;;7.93;;
14613;SDS011;7393;51.446;6.800;2023-12-14T12:12:05;13.17;;;8.33;;
14613;SDS011;7393;51.446;6.800;2023-12-14T12:14:32;12.80;;;8.70;;
14613;SDS011;7393;51.446;6.800;2023-12-14T12:16:59;11.33;;;8.73;;
14613;SDS011;7393;51.446;6.800;2023-12-14T12:19:27;10.87;;;8.40;;
14613;SDS011;7393;51.446;6.800;2023-12-14T12:21:54;10.13;;;7.67;;
14613;SDS011;7393;51.446;6.800;2023-12-14T12:24:21;8.83;;;6.97;;
14613;SDS011;7393;51.446;6.800;2023-12-14T12:26:48;10.80;;;8.33;;
14613;SDS011;7393;51.446;6.800;2023-12-14T12:29:13;12.83;;;8.53;;
14613;SDS011;7393;51.446;6.800;2023-12-14T12:31:40;11.13;;;8.60;;
14613;SDS011;7393;51.446;6.800;2023-12-14T12:34:07;13.73;;;8.53;;
14613;SDS011;7393;51.446;6.800;2023-12-14T12:36:35;13.57;;;8.83;;
14613;SDS011;7393;51.446;6.800;2023-12-14T12:39:02;12.60;;;8.57;;
14613;SDS011;7393;51.446;6.800;2023-12-14T12:41:31;12.67;;;8.90;;
14613;SDS011;7393;51.446;6.800;2023-12-14T12:43:57;11.77;;;8.57;;
14613;SDS011;7393;51.446;6.800;2023-12-14T12:46:30;12.40;;;8.90;;
14613;SDS011;7393;51.446;6.800;2023-12-14T12:48:57;13.47;;;9.10;;
14613;SDS011;7393;51.446;6.800;2023-12-14T12:51:24;15.43;;;10.20;;
14613;SDS011;7393;51.446;6.800;2023-12-14T12:53:53;14.47;;;9.70;;
14613;SDS011;7393;51.446;6.800;2023-12-14T12:56:20;15.33;;;10.43;;
14613;SDS011;7393;51.446;6.800;2023-12-14T12:58:47;13.23;;;8.73;;
14613;SDS011;7393;51.446;6.800;2023-12-14T13:01:17;12.20;;;8.30;;
14613;SDS011;7393;51.446;6.800;2023-12-14T13:03:43;12.63;;;7.63;;
14613;SDS011;7393;51.446;6.800;2023-12-14T13:06:10;11.07;;;7.10;;
14613;SDS011;7393;51.446;6.800;2023-12-14T13:08:37;7.67;;;6.23;;
14613;SDS011;7393;51.446;6.800;2023-12-14T13:11:05;10.07;;;6.97;;
14613;SDS011;7393;51.446;6.800;2023-12-14T13:13:32;14.27;;;7.47;;
14613;SDS011;7393;51.446;6.800;2023-12-14T13:15:59;9.77;;;6.87;;
14613;SDS011;7393;51.446;6.800;2023-12-14T13:18:25;10.30;;;7.10;;
14613;SDS011;7393;51.446;6.800;2023-12-14T13:20:52;8.73;;;6.20;;
14613;SDS011;7393;51.446;6.800;2023-12-14T13:23:19;8.90;;;6.00;;
14613;SDS011;7393;51.446;6.800;2023-12-14T13:25:46;8.93;;;6.37;;
14613;SDS011;7393;51.446;6.800;2023-12-14T13:28:14;8.97;;;6.33;;
14613;SDS011;7393;51.446;6.800;2023-12-14T13:30:41;8.93;;;6.27;;
14613;SDS011;7393;51.446;6.800;2023-12-14T13:33:07;8.57;;;6.60;;
14613;SDS011;7393;51.446;6.800;2023-12-14T13:35:36;8.80;;;7.13;;
14613;SDS011;7393;51.446;6.800;2023-12-14T13:38:03;9.87;;;7.37;;
14613;SDS011;7393;51.446;6.800;2023-12-14T13:40:30;9.33;;;7.27;;
14613;SDS011;7393;51.446;6.800;2023-12-14T13:42:57;10.80;;;7.20;;
14613;SDS011;7393;51.446;6.800;2023-12-14T13:45:30;9.93;;;7.47;;
14613;SDS011;7393;51.446;6.800;2023-12-14T13:47:56;11.57;;;8.50;;
14613;SDS011;7393;51.446;6.800;2023-12-14T13:50:24;11.70;;;8.47;;
14613;SDS011;7393;51.446;6.800;2023-12-14T13:52:52;12.47;;;8.70;;
14613;SDS011;7393;51.446;6.800;2023-12-14T13:55:19;12.70;;;9.10;;
14613;SDS011;7393;51.446;6.800;2023-12-14T13:57:46;15.27;;;9.20;;
14613;SDS011;7393;51.446;6.800;2023-12-14T14:00:14;12.43;;;8.50;;
14613;SDS011;7393;51.446;6.800;2023-12-14T14:02:43;11.97;;;8.83;;
14613;SDS011;7393;51.446;6.800;2023-12-14T14:05:10;15.23;;;8.93;;
14613;SDS011;7393;51.446;6.800;2023-12-14T14:07:36;10.17;;;8.10;;
14613;SDS011;7393;51.446;6.800;2023-12-14T14:10:04;16.67;;;9.23;;
14613;SDS011;7393;51.446;6.800;2023-12-14T14:12:31;14.47;;;8.93;;
14613;SDS011;7393;51.446;6.800;2023-12-14T14:14:58;13.10;;;9.33;;
14613;SDS011;7393;51.446;6.800;2023-12-14T14:17:25;16.43;;;11.73;;
14613;SDS011;7393;51.446;6.800;2023-12-14T14:19:53;14.63;;;10.77;;
14613;SDS011;7393;51.446;6.800;2023-12-14T14:22:20;12.63;;;9.63;;
14613;SDS011;7393;51.446;6.800;2023-12-14T14:24:47;12.67;;;8.27;;
14613;SDS011;7393;51.446;6.800;2023-12-14T14:27:13;11.30;;;7.83;;
14613;SDS011;7393;51.446;6.800;2023-12-14T14:29:40;13.87;;;9.00;;
14613;SDS011;7393;51.446;6.800;2023-12-14T14:32:07;10.87;;;8.10;;
14613;SDS011;7393;51.446;6.800;2023-12-14T14:34:33;11.70;;;8.60;;
14613;SDS011;7393;51.446;6.800;2023-12-14T14:37:02;10.80;;;8.43;;
14613;SDS011;7393;51.446;6.800;2023-12-14T14:39:30;11.27;;;8.70;;
14613;SDS011;7393;51.446;6.800;2023-12-14T14:41:57;12.67;;;8.70;;
14613;SDS011;7393;51.446;6.800;2023-12-14T14:44:24;11.57;;;7.90;;